createdAt,value
2018-12-29T00:03:51.767Z,92.06
2018-12-29T00:07:58.708Z,92.24
2018-12-29T00:12:24.510Z,92.37
2018-12-29T00:21:02.699Z,92.47
2018-12-29T00:29:35.626Z,92.43
2018-12-29T00:33:42.611Z,92.92
2018-12-29T00:37:49.678Z,93.15
2018-12-29T00:41:56.667Z,93.55
2018-12-29T00:50:29.519Z,93.64
2018-12-29T00:59:08.895Z,93.60
2018-12-29T01:03:19.805Z,93.01
2018-12-29T01:07:26.752Z,93.57
2018-12-29T01:11:33.788Z,93.62
2018-12-29T01:15:40.767Z,93.59
2018-12-29T01:19:47.710Z,93.68
2018-12-29T01:23:54.777Z,93.51
2018-12-29T01:28:01.752Z,93.44
2018-12-29T01:32:08.802Z,93.12
2018-12-29T01:36:15.977Z,92.77
2018-12-29T01:40:23.019Z,92.82
2018-12-29T01:44:30.066Z,93.09
2018-12-29T01:48:37.000Z,92.95
2018-12-29T01:52:44.147Z,93.12
2018-12-29T01:56:51.144Z,92.63
2018-12-29T02:00:58.110Z,92.38
2018-12-29T02:05:26.121Z,92.02
2018-12-29T02:09:33.037Z,91.68
2018-12-29T02:13:40.123Z,91.35
2018-12-29T02:17:46.991Z,91.21
2018-12-29T02:21:53.902Z,91.17
2018-12-29T02:26:01.784Z,91.04
2018-12-29T02:30:09.698Z,90.46
2018-12-29T02:34:16.760Z,90.64
2018-12-29T02:38:25.870Z,90.33
2018-12-29T02:42:32.885Z,90.67
2018-12-29T02:46:39.807Z,91.43
2018-12-29T02:50:46.798Z,91.63
2018-12-29T02:59:25.124Z,91.94
2018-12-29T03:03:32.242Z,92.09
2018-12-29T03:07:39.245Z,92.15
2018-12-29T03:11:46.148Z,92.39
2018-12-29T03:15:53.120Z,92.08
2018-12-29T03:20:00.172Z,92.19
2018-12-29T03:28:40.387Z,92.12
2018-12-29T03:32:47.272Z,91.85
2018-12-29T03:36:54.225Z,91.90
2018-12-29T03:41:40.637Z,91.77
2018-12-29T03:45:49.299Z,91.41
2018-12-29T03:50:02.615Z,90.94
2018-12-29T03:54:09.623Z,90.72
2018-12-29T03:58:16.568Z,90.67
2018-12-29T04:02:25.786Z,90.62
2018-12-29T04:06:33.532Z,90.62
2018-12-29T04:10:40.451Z,90.42
2018-12-29T04:14:47.424Z,90.25
2018-12-29T04:18:54.413Z,89.91
2018-12-29T04:23:01.478Z,89.98
2018-12-29T04:31:34.427Z,90.17
2018-12-29T04:36:00.738Z,90.19
2018-12-29T04:40:09.341Z,90.48
2018-12-29T04:44:16.303Z,90.30
2018-12-29T04:48:23.523Z,90.27
2018-12-29T04:52:30.372Z,90.30
2018-12-29T05:05:34.314Z,90.37
2018-12-29T05:09:42.221Z,90.94
2018-12-29T05:13:49.283Z,91.23
2018-12-29T05:17:56.344Z,91.95
2018-12-29T05:22:06.644Z,92.63
2018-12-29T05:26:13.601Z,92.90
2018-12-29T05:30:20.683Z,93.45
2018-12-29T05:34:27.665Z,93.71
2018-12-29T05:38:34.701Z,93.76
2018-12-29T05:47:07.665Z,93.67
2018-12-29T05:51:14.967Z,94.06
2018-12-29T05:55:24.144Z,93.92
2018-12-29T06:04:02.587Z,94.09
2018-12-29T06:08:09.790Z,94.45
2018-12-29T06:16:36.124Z,94.72
2018-12-29T06:20:43.263Z,94.72
2018-12-29T06:24:50.338Z,94.67
2018-12-29T06:28:57.384Z,94.56
2018-12-29T06:33:04.272Z,94.60
2018-12-29T06:37:11.294Z,94.82
2018-12-29T06:41:18.195Z,94.84
2018-12-29T06:45:25.291Z,94.68
2018-12-29T06:49:32.705Z,94.63
2018-12-29T06:53:39.729Z,94.56
2018-12-29T06:57:47.291Z,94.75
2018-12-29T07:02:14.709Z,94.61
2018-12-29T07:06:21.601Z,94.62
2018-12-29T07:10:28.594Z,94.39
2018-12-29T07:14:35.604Z,94.23
2018-12-29T07:18:42.695Z,94.36
2018-12-29T07:22:50.514Z,94.29
2018-12-29T07:26:57.388Z,94.12
2018-12-29T07:31:06.540Z,94.19
2018-12-29T07:35:13.491Z,94.01
2018-12-29T07:39:20.481Z,94.00
2018-12-29T07:43:27.402Z,93.95
2018-12-29T07:47:34.297Z,93.94
2018-12-29T07:51:41.215Z,94.08
2018-12-29T07:55:48.236Z,93.98
2018-12-29T07:59:55.124Z,93.82
2018-12-29T08:08:48.558Z,94.10
2018-12-29T08:12:55.651Z,94.24
2018-12-29T08:17:02.747Z,94.38
2018-12-29T08:21:09.800Z,94.29
2018-12-29T08:25:16.942Z,94.32
2018-12-29T08:29:23.837Z,94.38
2018-12-29T08:33:30.860Z,94.44
2018-12-29T08:37:37.866Z,94.45
2018-12-29T08:41:44.904Z,94.37
2018-12-29T08:45:52.001Z,94.28
2018-12-29T08:49:58.891Z,94.14
2018-12-29T08:54:05.784Z,94.12
2018-12-29T08:58:12.846Z,94.05
2018-12-29T09:02:19.819Z,93.97
2018-12-29T09:06:26.742Z,93.93
2018-12-29T09:10:56.257Z,93.89
2018-12-29T09:15:04.195Z,93.82
2018-12-29T09:23:34.206Z,94.12
2018-12-29T09:27:41.216Z,94.16
2018-12-29T09:31:50.307Z,94.13
2018-12-29T09:40:34.660Z,94.38
2018-12-29T09:44:41.800Z,94.27
2018-12-29T09:48:48.998Z,94.38
2018-12-29T09:52:56.268Z,94.21
2018-12-29T09:57:03.315Z,93.77
2018-12-29T10:06:19.651Z,93.57
2018-12-29T10:10:26.790Z,93.36
2018-12-29T10:14:33.775Z,93.14
2018-12-29T10:18:40.980Z,93.09
2018-12-29T10:22:48.848Z,93.08
2018-12-29T10:26:56.090Z,92.84
2018-12-29T10:31:03.293Z,92.79
2018-12-29T10:35:10.310Z,92.73
2018-12-29T10:39:20.150Z,92.72
2018-12-29T10:43:46.684Z,92.66
2018-12-29T10:47:53.796Z,94.07
2018-12-29T10:52:00.998Z,93.00
2018-12-29T11:00:39.358Z,92.96
2018-12-29T11:04:46.286Z,92.69
2018-12-29T11:08:53.246Z,92.70
2018-12-29T11:13:00.448Z,92.64
2018-12-29T11:17:07.745Z,92.97
2018-12-29T11:21:14.903Z,92.72
2018-12-29T11:30:03.702Z,92.77
2018-12-29T11:34:10.897Z,92.95
2018-12-29T11:38:18.118Z,92.90
2018-12-29T11:42:25.184Z,92.85
2018-12-29T11:46:32.168Z,92.83
2018-12-29T11:50:40.903Z,92.65
2018-12-29T11:55:27.484Z,92.58
2018-12-29T11:59:55.933Z,92.69
2018-12-29T12:04:03.136Z,92.56
2018-12-29T12:08:10.471Z,92.38
2018-12-29T12:12:17.383Z,91.92
2018-12-29T12:16:25.947Z,91.89
2018-12-29T12:24:56.056Z,91.80
2018-12-29T12:29:03.246Z,91.51
2018-12-29T12:33:50.073Z,91.36
2018-12-29T12:37:57.121Z,90.97
2018-12-29T12:42:05.672Z,90.84
2018-12-29T12:46:12.655Z,90.78
2018-12-29T12:50:19.601Z,90.64
2018-12-29T12:54:26.774Z,90.82
2018-12-29T12:58:33.790Z,90.85
2018-12-29T13:07:21.388Z,90.48
2018-12-29T13:11:28.623Z,90.57
2018-12-29T13:15:35.941Z,90.65
2018-12-29T13:24:14.863Z,90.29
2018-12-29T13:28:22.225Z,90.46
2018-12-29T13:36:55.697Z,90.23
2018-12-29T13:41:34.877Z,89.89
2018-12-29T13:45:42.392Z,89.71
2018-12-29T13:49:49.388Z,90.62
2018-12-29T13:58:41.663Z,92.63
2018-12-29T14:02:48.866Z,93.54
2018-12-29T14:06:56.415Z,93.63
2018-12-29T14:11:03.569Z,93.60
2018-12-29T14:15:11.062Z,93.41
2018-12-29T14:19:18.266Z,93.61
2018-12-29T14:23:25.969Z,93.60
2018-12-29T14:27:33.156Z,93.79
2018-12-29T14:31:40.217Z,93.68
2018-12-29T14:35:48.535Z,93.75
2018-12-29T14:39:55.975Z,93.72
2018-12-29T14:44:23.566Z,93.99
2018-12-29T14:48:35.987Z,94.09
2018-12-29T14:52:48.830Z,93.97
2018-12-29T14:56:56.210Z,94.33
2018-12-29T15:01:04.835Z,94.42
2018-12-29T15:05:13.515Z,94.58
2018-12-29T15:09:25.284Z,94.74
2018-12-29T15:13:36.612Z,94.75
2018-12-29T15:17:55.520Z,94.81
2018-12-29T15:22:02.986Z,94.93
2018-12-29T15:26:12.640Z,94.76
2018-12-29T15:30:20.685Z,95.13
2018-12-29T15:37:17.393Z,95.11
2018-12-29T15:41:24.950Z,94.76
2018-12-29T15:45:32.518Z,94.85
2018-12-29T15:49:39.624Z,94.91
2018-12-29T15:53:46.989Z,94.95
2018-12-29T15:57:54.939Z,94.94
2018-12-29T16:02:02.326Z,95.02
2018-12-29T16:06:11.386Z,95.01
2018-12-29T16:10:18.474Z,95.24
2018-12-29T16:14:25.581Z,95.46
2018-12-29T16:18:33.804Z,95.36
2018-12-29T16:22:51.503Z,95.37
2018-12-29T16:26:58.590Z,95.28
2018-12-29T16:31:05.925Z,95.18
2018-12-29T16:35:13.378Z,94.99
2018-12-29T16:39:20.726Z,94.64
2018-12-29T16:43:27.771Z,94.72
2018-12-29T16:47:34.850Z,94.25
2018-12-29T16:51:42.447Z,94.18
2018-12-29T16:55:52.739Z,94.09
2018-12-29T17:00:07.000Z,94.25
2018-12-29T17:04:15.215Z,94.13
2018-12-29T17:08:22.648Z,94.12
2018-12-29T17:12:30.135Z,93.98
2018-12-29T17:16:37.419Z,94.00
2018-12-29T17:20:44.713Z,93.96
2018-12-29T17:24:51.770Z,93.97
2018-12-29T17:28:58.776Z,93.72
2018-12-29T17:33:05.872Z,93.98
2018-12-29T17:37:15.145Z,94.00
2018-12-29T17:41:22.647Z,93.83
2018-12-29T17:45:39.644Z,93.69
2018-12-29T17:49:46.883Z,93.69
2018-12-29T17:53:54.100Z,93.53
2018-12-29T17:58:09.351Z,93.98
2018-12-29T18:02:16.307Z,94.54
2018-12-29T18:06:23.465Z,94.88
2018-12-29T18:10:30.835Z,95.09
2018-12-29T18:14:39.026Z,95.29
2018-12-29T18:18:46.167Z,95.74
2018-12-29T18:22:53.266Z,95.94
2018-12-29T18:27:00.765Z,96.14
2018-12-29T18:31:08.237Z,96.22
2018-12-29T18:35:15.821Z,96.35
2018-12-29T18:39:23.755Z,96.43
2018-12-29T18:43:31.654Z,96.42
2018-12-29T18:47:39.017Z,96.28
2018-12-29T18:51:46.227Z,96.29
2018-12-29T18:55:53.395Z,96.10
2018-12-29T19:00:00.808Z,95.95
2018-12-29T19:04:08.030Z,95.91
2018-12-29T19:08:15.353Z,95.75
2018-12-29T19:12:22.363Z,95.75
2018-12-29T19:16:30.194Z,95.58
2018-12-29T19:20:38.542Z,95.56
2018-12-29T19:24:46.441Z,95.73
2018-12-29T19:28:53.748Z,96.19
2018-12-29T19:33:00.984Z,96.50
2018-12-29T19:37:08.134Z,96.83
2018-12-29T19:41:16.114Z,97.08
2018-12-29T19:45:23.667Z,97.32
2018-12-29T19:49:31.477Z,97.46
2018-12-29T19:53:38.673Z,97.40
2018-12-29T19:57:46.406Z,97.23
2018-12-29T20:01:53.536Z,97.08
2018-12-29T20:06:01.064Z,96.96
2018-12-29T20:10:12.020Z,96.95
2018-12-29T20:14:21.582Z,96.76
2018-12-29T20:18:28.794Z,96.68
2018-12-29T20:22:36.368Z,96.55
2018-12-29T20:26:45.638Z,96.44
2018-12-29T20:30:52.976Z,96.25
2018-12-29T20:35:02.289Z,96.05
2018-12-29T20:39:09.705Z,95.81
2018-12-29T20:43:17.342Z,95.66
2018-12-29T20:47:24.801Z,95.51
2018-12-29T20:51:31.917Z,95.39
2018-12-29T20:55:39.527Z,95.12
2018-12-29T20:59:47.288Z,94.93
2018-12-29T21:03:55.020Z,94.90
2018-12-29T21:08:02.233Z,94.91
2018-12-29T21:12:09.544Z,94.75
2018-12-29T21:16:17.060Z,94.59
2018-12-29T21:20:24.174Z,94.54
2018-12-29T21:24:32.396Z,94.62
2018-12-29T21:28:47.714Z,94.57
2018-12-29T21:33:15.382Z,94.55
2018-12-29T21:37:22.802Z,94.48
2018-12-29T21:41:31.944Z,94.39
2018-12-29T21:45:39.448Z,94.39
2018-12-29T21:49:50.021Z,94.16
2018-12-29T21:54:00.660Z,93.93
2018-12-29T21:58:09.792Z,93.70
2018-12-29T22:02:16.861Z,93.47
2018-12-29T22:06:24.005Z,92.89
2018-12-29T22:10:31.334Z,92.62
2018-12-29T22:14:39.261Z,92.36
2018-12-29T22:18:46.394Z,91.95
2018-12-29T22:22:53.968Z,91.84
2018-12-29T22:27:00.995Z,91.70
2018-12-29T22:31:08.143Z,91.61
2018-12-29T22:35:23.805Z,91.27
2018-12-29T22:39:31.578Z,91.21
2018-12-29T22:43:45.156Z,91.42
2018-12-29T22:47:52.488Z,91.80
2018-12-29T22:51:59.463Z,91.86
2018-12-29T22:56:06.582Z,91.67
2018-12-29T23:00:34.185Z,91.32
2018-12-29T23:04:43.290Z,91.19
2018-12-29T23:08:51.056Z,90.86
2018-12-29T23:12:58.452Z,90.73
2018-12-29T23:17:05.552Z,90.53
2018-12-29T23:21:12.515Z,90.72
2018-12-29T23:25:19.682Z,90.51
2018-12-29T23:29:27.827Z,90.53
2018-12-29T23:33:35.232Z,90.43
2018-12-29T23:37:42.468Z,90.49
2018-12-29T23:41:51.869Z,90.35
2018-12-29T23:45:59.056Z,90.20
2018-12-29T23:50:07.613Z,90.16
2018-12-29T23:54:15.945Z,90.00
2018-12-29T23:58:24.345Z,89.96
